Terminal Aerodrome Forecast
Issued by NWS

Home | Current Version | Previous Version | Text Only | Print | Product List | Glossary On
Versions: 1 2 3 4 5 6 7 8 9 10 11 12 13 14 15 16 17 18 19 20 21 22 23 24
000
FTUS41 KCAR 040532
TAFPQI
TAF
KPQI 040532Z 0406/0506 32005KT P6SM BKN025
     FM040900 32007KT P6SM BKN015
     FM041800 32010KT P6SM BKN025
     FM042000 32008KT P6SM SCT040=

USA.gov is the U.S. government's official web portal to all federal, state and local government web resources and services.